LFBZ/BIQ METAR and TAF weather

Enter ICAO airport designator
Station Type Date Time Source
LFBZ METAR 2022/05/25 01:30 UTC NOAA

LFBZ 250130Z AUTO VRB03KT 9999 SCT023/// BKN032/// OVC064/// ///TCU 12/11 Q1019 TEMPO BKN014 SCT030TCU


Station Type Date Time Source
LFBZ Decoded METAR 2022/05/25 01:30 UTC NOAA

Biarritz, France (LFBZ) 43-28N 001-32W 71M
May 24, 2022 - 09:30 PM EDT / 2022.05.25 0130 UTC
Wind: Variable at 3 MPH (3 KT):0
Visibility: greater than 7 mile(s):0
Sky conditions: overcast
Weather: Towering cumulus clouds observed
Temperature: 53 F (12 C)
Dew Point: 51 F (11 C)
Relative Humidity: 93%
Pressure (altimeter): 30.09 in. Hg (1019 hPa)
ob: LFBZ 250130Z AUTO VRB03KT 9999 SCT023/// BKN032/// OVC064/// ///TCU 12/11 Q1019 TEMPO BKN014 SCT030TCU
cycle: 1

Station Type Date Time Source
LFBZ TAF 2022/05/24 18:21 UTC NOAA

TAF LFBZ 241700Z 2418/2518 30010KT 9999 BKN030 PROB30
TEMPO 2418/2508 -SHRA BKN014 SCT030TCU PROB40
TEMPO 2508/2512 33015G25KT 4000 SHRA BKN030TCU

Example: see airport list